Costa Romantica — IBCR — position and weather

sailwx.info

Track history (hours):
 
Tides and Currents Weather Stations Pressure Air Temp Water Temp Dewpoint Dewpoint Depression Visibility Wind Speed Wind Dir Waves Ship Positions

Costa Romantica

Last reported at 2019-Feb-20 09:08 UTC. Time now 2019-Feb-23 16:57 UTC.
Position N 23°55' E 118°27'.

Length 221 m; draft 7.8 m.

Type: Passenger vessel. MMSI: 247817000.

Date/timePositionNaut miles runAvg speedWind from/ knotsBaromVisibWave heightAir tempDewpointWater temp
2019-Feb-20 09:08N 23°55' E 118°27'216.6
2019-Feb-20 08:59N 23°57' E 118°26'816.8
2019-Feb-20 08:31N 24°04' E 118°21'816.2
2019-Feb-20 08:01N 24°12' E 118°18'815.3
2019-Feb-20 07:31N 24°18' E 118°13'714.9
2019-Feb-20 07:01N 24°23' E 118°07'611.8
2019-Feb-20 06:30N 24°27' E 118°03'2 4.5
2019-Feb-20 05:58N 24°29' E 118°04'0 0.0
2019-Feb-20 05:28N 24°29' E 118°04'0 0.0
2019-Feb-20 04:58N 24°29' E 118°04'0 0.0
2019-Feb-20 04:28N 24°29' E 118°04'0 0.0
2019-Feb-20 03:58N 24°29' E 118°04'0 0.0
2019-Feb-20 02:58N 24°29' E 118°04'0 0.0
2019-Feb-20 02:28N 24°29' E 118°04'0 0.0
2019-Feb-20 01:55N 24°29' E 118°04'0 0.0
2019-Feb-20 01:28N 24°29' E 118°04'0 0.0
2019-Feb-20 00:58N 24°29' E 118°04'0 0.0
2019-Feb-20 00:25N 24°29' E 118°04'0 0.0
2019-Feb-19 23:55N 24°29' E 118°04'0 0.0
2019-Feb-19 23:28N 24°29' E 118°04'0 0.0
2019-Feb-19 22:58N 24°29' E 118°04'0 0.0
2019-Feb-19 22:30N 24°29' E 118°04'2 3.4
2019-Feb-19 22:00N 24°28' E 118°03'510.8
2019-Feb-19 21:30N 24°24' E 118°07'611.3
2019-Feb-19 21:00N 24°20' E 118°11'612.4
2019-Feb-19 20:30N 24°15' E 118°15'713.2
2019-Feb-19 20:00N 24°11' E 118°21'612.0
2019-Feb-19 19:30N 24°11' E 118°28'611.5
2019-Feb-19 19:00N 24°09' E 118°33'611.9
2019-Feb-19 18:30N 24°10' E 118°40'  
2019-Feb-16 14:05N 24°14' E 118°50'212.2
2019-Feb-16 13:56N 24°13' E 118°49'512.5
2019-Feb-16 13:30N 24°11' E 118°43'712.3
2019-Feb-16 12:57N 24°09' E 118°36'612.8
2019-Feb-16 12:30N 24°11' E 118°30'612.7
2019-Feb-16 12:00N 24°11' E 118°23'612.3
2019-Feb-16 11:31N 24°13' E 118°17'713.9
2019-Feb-16 11:00N 24°19' E 118°12'713.2
2019-Feb-16 10:30N 24°23' E 118°07'511.0
2019-Feb-16 10:00N 24°28' E 118°03'2 3.5
2019-Feb-16 09:25N 24°29' E 118°04'0 0.0
2019-Feb-16 08:55N 24°29' E 118°04'0 0.0
2019-Feb-16 08:19N 24°29' E 118°04'0 0.0
2019-Feb-16 07:55N 24°29' E 118°04'0 0.0
2019-Feb-16 07:22N 24°29' E 118°04'0 0.0
2019-Feb-16 06:55N 24°29' E 118°04'0 0.0
2019-Feb-16 06:25N 24°29' E 118°04'0 0.0
2019-Feb-16 05:58N 24°29' E 118°04'0 0.0
2019-Feb-16 05:28N 24°29' E 118°04'0 0.0
2019-Feb-16 04:55N 24°29' E 118°04'0 0.0
2019-Feb-16 04:25N 24°29' E 118°04'0 0.0
2019-Feb-16 03:58N 24°29' E 118°04'0 0.0
2019-Feb-16 03:25N 24°29' E 118°04'0 0.0
2019-Feb-16 02:55N 24°29' E 118°04'0 0.0
2019-Feb-16 02:22N 24°29' E 118°04'0 0.0
2019-Feb-16 01:58N 24°29' E 118°04'0 0.1
2019-Feb-16 01:30N 24°29' E 118°04'3 6.4
2019-Feb-16 01:00N 24°26' E 118°03'612.3
2019-Feb-16 00:31N 24°22' E 118°08'713.7
2019-Feb-16 00:01N 24°17' E 118°13'713.9
2019-Feb-15 23:30N 24°12' E 118°18'815.2
2019-Feb-15 23:00N 24°12' E 118°27'815.5
2019-Feb-15 22:30N 24°12' E 118°35'2015.5
2019-Feb-15 21:13N 24°17' E 118°56'  
2019-Feb-13 00:45N 25°47' E 121°42'516.2
2019-Feb-13 00:28N 25°45' E 121°38'917.1
2019-Feb-12 23:55N 25°40' E 121°29'817.6
2019-Feb-12 23:28N 25°36' E 121°21'1217.9
2019-Feb-12 22:48N 25°30' E 121°10'617.9
2019-Feb-12 22:27N 25°27' E 121°04'917.9
2019-Feb-12 21:58N 25°23' E 120°55'8616.0
2019-Feb-12 16:38N 24°38' E 119°35'617.1
2019-Feb-12 16:17N 24°33' E 119°31'2016.7
2019-Feb-12 15:06N 24°23' E 119°12'1416.6
2019-Feb-12 14:17N 24°17' E 118°59'2115.6
2019-Feb-12 12:55N 24°12' E 118°36'715.3
2019-Feb-12 12:30N 24°12' E 118°29'713.5
2019-Feb-12 12:00N 24°10' E 118°22'713.7
2019-Feb-12 11:30N 24°14' E 118°16'714.9
2019-Feb-12 11:00N 24°20' E 118°11'714.4
2019-Feb-12 10:30N 24°25' E 118°05'5 9.7
2019-Feb-12 10:00N 24°29' E 118°04'0 0.5
2019-Feb-12 09:27N 24°29' E 118°04'0 0.0
2019-Feb-12 08:57N 24°29' E 118°04'0 0.0
2019-Feb-12 08:27N 24°29' E 118°04'0 0.0
2019-Feb-12 07:51N 24°29' E 118°04'0 0.0
2019-Feb-12 07:30N 24°29' E 118°04'0 0.0
2019-Feb-12 06:51N 24°29' E 118°04'0 0.0
2019-Feb-12 06:30N 24°29' E 118°04'0 0.0
2019-Feb-12 05:57N 24°29' E 118°04'0 0.0
2019-Feb-12 05:27N 24°29' E 118°04'0 0.0
2019-Feb-12 05:00N 24°29' E 118°04'0 0.0
2019-Feb-12 04:27N 24°29' E 118°04'0 0.0
2019-Feb-12 03:54N 24°29' E 118°04'0 0.0
2019-Feb-12 03:24N 24°29' E 118°04'0 0.0
2019-Feb-12 02:57N 24°29' E 118°04'0 0.0
2019-Feb-12 02:21N 24°29' E 118°04'0 0.0
2019-Feb-12 01:57N 24°29' E 118°04'0 0.1
2019-Feb-12 01:30N 24°29' E 118°04'2 4.0
2019-Feb-12 01:00N 24°28' E 118°03'611.9
2019-Feb-12 00:31N 24°23' E 118°07'713.0
2019-Feb-12 00:01N 24°18' E 118°12'714.2
2019-Feb-11 23:30N 24°13' E 118°17'715.1
2019-Feb-11 23:00N 24°12' E 118°25'815.6
2019-Feb-11 22:30N 24°12' E 118°34'13212.9
2019-Feb-11 12:19N 25°13' E 120°43'1112.4
2019-Feb-11 11:24N 25°20' E 120°53'912.1
2019-Feb-11 10:40N 25°25' E 121°01'211.9
2019-Feb-11 10:30N 25°26' E 121°03'711.9
2019-Feb-11 09:54N 25°30' E 121°09'511.5
2019-Feb-11 09:29N 25°33' E 121°14'711.6
2019-Feb-11 08:56N 25°36' E 121°20'611.7
2019-Feb-11 08:27N 25°38' E 121°25'511.9
2019-Feb-11 07:59N 25°41' E 121°31'712.3
2019-Feb-11 07:25N 25°45' E 121°37'512.5
2019-Feb-11 07:00N 25°47' E 121°43'813.0
2019-Feb-11 06:25N 25°49' E 121°51'712.7
2019-Feb-11 05:50N 25°51' E 121°59'4 9.4
2019-Feb-11 05:23N 25°52' E 122°03'7 8.3
2019-Feb-11 04:35N 25°51' E 122°11'1 8.6
2019-Feb-11 04:27N 25°51' E 122°12'4 8.5
2019-Feb-11 03:56N 25°51' E 122°17'  
Track history (hours):
 
Tides and Currents Weather Stations Pressure Air Temp Water Temp Dewpoint Dewpoint Depression Visibility Wind Speed Wind Dir Waves Ship Positions

Costa Romantica

Last reported at 2019-Feb-20 09:08 UTC. Time now 2019-Feb-23 16:57 UTC.
Position N 23°55' E 118°27'.

Length 221 m; draft 7.8 m.

Type: Passenger vessel. MMSI: 247817000.

Date/timePositionNaut miles runAvg speedWind from/ knotsBaromVisibWave heightAir tempDewpointWater temp
2019-Feb-20 09:08N 23°55' E 118°27'216.6
2019-Feb-20 08:59N 23°57' E 118°26'816.8
2019-Feb-20 08:31N 24°04' E 118°21'816.2
2019-Feb-20 08:01N 24°12' E 118°18'815.3
2019-Feb-20 07:31N 24°18' E 118°13'714.9
2019-Feb-20 07:01N 24°23' E 118°07'611.8
2019-Feb-20 06:30N 24°27' E 118°03'2 4.5
2019-Feb-20 05:58N 24°29' E 118°04'0 0.0
2019-Feb-20 05:28N 24°29' E 118°04'0 0.0
2019-Feb-20 04:58N 24°29' E 118°04'0 0.0
2019-Feb-20 04:28N 24°29' E 118°04'0 0.0
2019-Feb-20 03:58N 24°29' E 118°04'0 0.0
2019-Feb-20 02:58N 24°29' E 118°04'0 0.0
2019-Feb-20 02:28N 24°29' E 118°04'0 0.0
2019-Feb-20 01:55N 24°29' E 118°04'0 0.0
2019-Feb-20 01:28N 24°29' E 118°04'0 0.0
2019-Feb-20 00:58N 24°29' E 118°04'0 0.0
2019-Feb-20 00:25N 24°29' E 118°04'0 0.0
2019-Feb-19 23:55N 24°29' E 118°04'0 0.0
2019-Feb-19 23:28N 24°29' E 118°04'0 0.0
2019-Feb-19 22:58N 24°29' E 118°04'0 0.0
2019-Feb-19 22:30N 24°29' E 118°04'2 3.4
2019-Feb-19 22:00N 24°28' E 118°03'510.8
2019-Feb-19 21:30N 24°24' E 118°07'611.3
2019-Feb-19 21:00N 24°20' E 118°11'612.4
2019-Feb-19 20:30N 24°15' E 118°15'713.2
2019-Feb-19 20:00N 24°11' E 118°21'612.0
2019-Feb-19 19:30N 24°11' E 118°28'611.5
2019-Feb-19 19:00N 24°09' E 118°33'611.9
2019-Feb-19 18:30N 24°10' E 118°40'  
2019-Feb-16 14:05N 24°14' E 118°50'212.2
2019-Feb-16 13:56N 24°13' E 118°49'512.5
2019-Feb-16 13:30N 24°11' E 118°43'712.3
2019-Feb-16 12:57N 24°09' E 118°36'612.8
2019-Feb-16 12:30N 24°11' E 118°30'612.7
2019-Feb-16 12:00N 24°11' E 118°23'612.3
2019-Feb-16 11:31N 24°13' E 118°17'713.9
2019-Feb-16 11:00N 24°19' E 118°12'713.2
2019-Feb-16 10:30N 24°23' E 118°07'511.0
2019-Feb-16 10:00N 24°28' E 118°03'2 3.5
2019-Feb-16 09:25N 24°29' E 118°04'0 0.0
2019-Feb-16 08:55N 24°29' E 118°04'0 0.0
2019-Feb-16 08:19N 24°29' E 118°04'0 0.0
2019-Feb-16 07:55N 24°29' E 118°04'0 0.0
2019-Feb-16 07:22N 24°29' E 118°04'0 0.0
2019-Feb-16 06:55N 24°29' E 118°04'0 0.0
2019-Feb-16 06:25N 24°29' E 118°04'0 0.0
2019-Feb-16 05:58N 24°29' E 118°04'0 0.0
2019-Feb-16 05:28N 24°29' E 118°04'0 0.0
2019-Feb-16 04:55N 24°29' E 118°04'0 0.0
2019-Feb-16 04:25N 24°29' E 118°04'0 0.0
2019-Feb-16 03:58N 24°29' E 118°04'0 0.0
2019-Feb-16 03:25N 24°29' E 118°04'0 0.0
2019-Feb-16 02:55N 24°29' E 118°04'0 0.0
2019-Feb-16 02:22N 24°29' E 118°04'0 0.0
2019-Feb-16 01:58N 24°29' E 118°04'0 0.1
2019-Feb-16 01:30N 24°29' E 118°04'3 6.4
2019-Feb-16 01:00N 24°26' E 118°03'612.3
2019-Feb-16 00:31N 24°22' E 118°08'713.7
2019-Feb-16 00:01N 24°17' E 118°13'713.9
2019-Feb-15 23:30N 24°12' E 118°18'815.2
2019-Feb-15 23:00N 24°12' E 118°27'815.5
2019-Feb-15 22:30N 24°12' E 118°35'2015.5
2019-Feb-15 21:13N 24°17' E 118°56'  
2019-Feb-13 00:45N 25°47' E 121°42'516.2
2019-Feb-13 00:28N 25°45' E 121°38'917.1
2019-Feb-12 23:55N 25°40' E 121°29'817.6
2019-Feb-12 23:28N 25°36' E 121°21'1217.9
2019-Feb-12 22:48N 25°30' E 121°10'617.9
2019-Feb-12 22:27N 25°27' E 121°04'917.9
2019-Feb-12 21:58N 25°23' E 120°55'8616.0
2019-Feb-12 16:38N 24°38' E 119°35'617.1
2019-Feb-12 16:17N 24°33' E 119°31'2016.7
2019-Feb-12 15:06N 24°23' E 119°12'1416.6
2019-Feb-12 14:17N 24°17' E 118°59'2115.6
2019-Feb-12 12:55N 24°12' E 118°36'715.3
2019-Feb-12 12:30N 24°12' E 118°29'713.5
2019-Feb-12 12:00N 24°10' E 118°22'713.7
2019-Feb-12 11:30N 24°14' E 118°16'714.9
2019-Feb-12 11:00N 24°20' E 118°11'714.4
2019-Feb-12 10:30N 24°25' E 118°05'5 9.7
2019-Feb-12 10:00N 24°29' E 118°04'0 0.5
2019-Feb-12 09:27N 24°29' E 118°04'0 0.0
2019-Feb-12 08:57N 24°29' E 118°04'0 0.0
2019-Feb-12 08:27N 24°29' E 118°04'0 0.0
2019-Feb-12 07:51N 24°29' E 118°04'0 0.0
2019-Feb-12 07:30N 24°29' E 118°04'0 0.0
2019-Feb-12 06:51N 24°29' E 118°04'0 0.0
2019-Feb-12 06:30N 24°29' E 118°04'0 0.0
2019-Feb-12 05:57N 24°29' E 118°04'0 0.0
2019-Feb-12 05:27N 24°29' E 118°04'0 0.0
2019-Feb-12 05:00N 24°29' E 118°04'0 0.0
2019-Feb-12 04:27N 24°29' E 118°04'0 0.0
2019-Feb-12 03:54N 24°29' E 118°04'0 0.0
2019-Feb-12 03:24N 24°29' E 118°04'0 0.0
2019-Feb-12 02:57N 24°29' E 118°04'0 0.0
2019-Feb-12 02:21N 24°29' E 118°04'0 0.0
2019-Feb-12 01:57N 24°29' E 118°04'0 0.1
2019-Feb-12 01:30N 24°29' E 118°04'2 4.0
2019-Feb-12 01:00N 24°28' E 118°03'611.9
2019-Feb-12 00:31N 24°23' E 118°07'713.0
2019-Feb-12 00:01N 24°18' E 118°12'714.2
2019-Feb-11 23:30N 24°13' E 118°17'715.1
2019-Feb-11 23:00N 24°12' E 118°25'815.6
2019-Feb-11 22:30N 24°12' E 118°34'13212.9
2019-Feb-11 12:19N 25°13' E 120°43'1112.4
2019-Feb-11 11:24N 25°20' E 120°53'912.1
2019-Feb-11 10:40N 25°25' E 121°01'211.9
2019-Feb-11 10:30N 25°26' E 121°03'711.9
2019-Feb-11 09:54N 25°30' E 121°09'511.5
2019-Feb-11 09:29N 25°33' E 121°14'711.6
2019-Feb-11 08:56N 25°36' E 121°20'611.7
2019-Feb-11 08:27N 25°38' E 121°25'511.9
2019-Feb-11 07:59N 25°41' E 121°31'712.3
2019-Feb-11 07:25N 25°45' E 121°37'512.5
2019-Feb-11 07:00N 25°47' E 121°43'813.0
2019-Feb-11 06:25N 25°49' E 121°51'712.7
2019-Feb-11 05:50N 25°51' E 121°59'4 9.4
2019-Feb-11 05:23N 25°52' E 122°03'7 8.3
2019-Feb-11 04:35N 25°51' E 122°11'1 8.6
2019-Feb-11 04:27N 25°51' E 122°12'4 8.5
2019-Feb-11 03:56N 25°51' E 122°17'  

Dump ship's entire track history